Time;durP1;ratioP1;P1;durP2;ratioP2;P2;SDS_P1;SDS_P2;PMS_P1;PMS_P2;Temp;Humidity;BMP_temperature;BMP_pressure;BME280_temperature;BME280_humidity;BME280_pressure;Samples;Min_cycle;Max_cycle;Signal;HPM_P1;HPM_P2
2022/09/06 00:01:16;;;;;;;4.75;4.10;;;21.90;59.70;;;24.64;42.76;97694.28;5005596;28;20366;-45
2022/09/06 00:03:45;;;;;;;4.75;3.97;;;21.80;60.00;;;24.63;42.64;97683.66;5006151;28;20061;-45
2022/09/06 00:06:17;;;;;;;4.93;3.53;;;21.80;59.60;;;24.64;42.62;97683.41;5005633;28;20049;-44
2022/09/06 00:08:47;;;;;;;4.22;3.40;;;21.80;59.50;;;24.62;42.61;97679.25;5005851;28;20055;-46
2022/09/06 00:11:16;;;;;;;5.43;3.25;;;21.80;59.10;;;24.62;42.43;97684.72;5005928;28;20056;-45
2022/09/06 00:13:45;;;;;;;4.53;3.60;;;21.90;58.90;;;24.60;42.35;97684.94;5005075;28;20052;-45
2022/09/06 00:16:22;;;;;;;8.63;3.42;;;21.90;58.70;;;24.62;42.36;97679.25;5008246;28;20054;-45
2022/09/06 00:18:55;;;;;;;4.93;3.95;;;21.90;58.90;;;24.62;42.41;97671.09;5009947;28;20049;-46
2022/09/06 00:21:27;;;;;;;3.83;3.53;;;21.90;58.60;;;24.59;42.62;97677.88;5010270;28;20046;-45
2022/09/06 00:23:55;;;;;;;6.25;4.10;;;21.90;58.80;;;24.57;42.45;97682.75;5010593;28;20061;-44
2022/09/06 00:26:23;;;;;;;5.63;3.83;;;21.90;58.60;;;24.54;42.45;97685.97;5010471;28;20054;-44
2022/09/06 00:28:51;;;;;;;4.85;3.97;;;21.90;58.60;;;24.54;42.65;97689.53;5009560;28;20056;-46
2022/09/06 00:31:23;;;;;;;5.25;3.85;;;21.90;58.60;;;24.54;42.55;97697.69;5009966;28;20064;-46
2022/09/06 00:33:52;;;;;;;5.07;3.28;;;22.00;58.60;;;24.54;42.60;97686.81;5009089;28;20060;-44
2022/09/06 00:36:23;;;;;;;4.32;3.65;;;21.90;58.70;;;24.54;42.44;97684.09;5008170;28;20058;-44
2022/09/06 00:38:50;;;;;;;6.53;4.13;;;21.90;58.90;;;24.54;42.57;97684.09;5009673;28;20049;-45
2022/09/06 00:41:18;;;;;;;4.53;3.90;;;21.80;58.90;;;24.50;42.57;97677.44;5010262;28;20053;-44
2022/09/06 00:43:46;;;;;;;4.80;3.90;;;21.80;58.90;;;24.47;42.82;97682.56;5008222;28;20060;-44
2022/09/06 00:46:25;;;;;;;4.00;3.60;;;21.70;59.30;;;24.43;42.91;97676.81;5008727;28;20042;-44
2022/09/06 00:49:23;;;;;;;4.45;3.72;;;21.60;59.90;;;24.41;43.11;97683.56;5008809;28;20046;-45
2022/09/06 00:51:54;;;;;;;4.75;3.45;;;21.60;60.30;;;24.37;43.10;97685.97;5004430;28;20272;-45
2022/09/06 00:54:22;;;;;;;4.78;4.30;;;21.50;60.60;;;24.33;43.07;97687.50;5010260;28;20062;-45
2022/09/06 00:56:50;;;;;;;4.63;4.00;;;21.50;60.20;;;24.30;43.32;97680.69;5008553;28;20050;-44
2022/09/06 00:59:18;;;;;;;5.65;4.55;;;21.50;60.10;;;24.29;43.32;97680.94;5008643;28;20358;-46
2022/09/06 01:01:46;;;;;;;7.05;5.13;;;21.60;60.10;;;24.30;43.37;97685.31;5007723;28;20034;-44
2022/09/06 01:04:15;;;;;;;7.75;3.78;;;21.60;60.20;;;24.30;43.34;97682.59;5009572;28;20066;-45
2022/09/06 01:07:34;;;;;;;4.53;3.85;;;21.50;60.30;;;24.30;43.07;97688.84;5007814;28;20046;-45
2022/09/06 01:10:35;;;;;;;5.13;3.92;;;21.50;60.90;;;24.26;43.21;97686.88;5009392;28;20053;-44
2022/09/06 01:13:20;;;;;;;6.80;5.07;;;21.40;61.30;;;24.22;43.36;97686.56;5004146;28;20066;-47
2022/09/06 01:16:10;;;;;;;4.32;3.90;;;21.40;61.00;;;24.17;43.50;97689.19;5009148;28;20046;-44
2022/09/06 01:19:15;;;;;;;5.43;4.03;;;21.30;61.40;;;24.14;43.42;97697.84;5009766;28;20144;-49
2022/09/06 01:22:53;;;;;;;4.47;4.07;;;21.30;62.00;;;24.06;43.84;97693.66;5008700;28;20264;-45
2022/09/06 01:25:30;;;;;;;6.03;4.60;;;21.20;62.60;;;24.09;43.74;97695.84;4970371;28;20057;-44
2022/09/06 01:28:29;;;;;;;4.80;4.10;;;21.20;62.30;;;24.05;43.65;97702.03;5007757;28;20244;-44
2022/09/06 01:31:15;;;;;;;4.43;4.03;;;21.20;62.30;;;24.09;43.58;97698.56;5007081;28;20045;-44
2022/09/06 01:34:04;;;;;;;7.63;4.45;;;21.20;61.90;;;24.10;43.73;97700.25;5006860;28;20050;-45
2022/09/06 01:36:43;;;;;;;4.80;4.30;;;21.30;62.00;;;24.11;43.76;97698.34;5009144;28;20056;-45
2022/09/06 01:39:34;;;;;;;4.43;3.70;;;21.20;62.00;;;24.13;43.76;97707.06;5007428;28;20054;-44
2022/09/06 01:42:28;;;;;;;5.30;4.07;;;21.30;61.90;;;24.13;43.58;97705.16;5008061;28;20383;-44
2022/09/06 01:45:07;;;;;;;7.00;4.00;;;21.30;62.10;;;24.14;43.63;97709.53;5009223;28;20053;-44
2022/09/06 01:47:39;;;;;;;4.30;3.90;;;21.30;62.30;;;24.14;43.87;97706.81;5038759;28;20042;-45
2022/09/06 01:50:18;;;;;;;4.32;3.83;;;21.30;62.00;;;24.19;43.77;97716.94;5007843;28;20308;-44
2022/09/06 01:53:40;;;;;;;5.38;3.88;;;21.30;61.90;;;24.15;43.60;97732.13;5009378;28;20374;-44
2022/09/06 01:56:44;;;;;;;4.57;3.67;;;21.40;61.60;;;24.20;43.58;97739.56;5009208;28;20068;-44
2022/09/06 01:59:33;;;;;;;5.00;3.63;;;21.40;61.40;;;23.76;44.73;97843.41;5007518;28;20042;-45
2022/09/06 02:02:07;;;;;;;5.68;4.00;;;21.30;62.20;;;23.46;45.90;97821.84;5007743;28;20293;-44
2022/09/06 02:05:00;;;;;;;6.15;4.00;;;21.00;64.00;;;23.67;45.28;97829.38;5007754;28;20060;-44
2022/09/06 02:07:31;;;;;;;9.17;4.47;;;21.00;64.20;;;23.54;45.68;97827.75;5008316;28;20057;-46
2022/09/06 02:10:40;;;;;;;4.88;4.20;;;21.10;64.30;;;23.60;45.53;97828.69;5008167;28;20356;-45
2022/09/06 02:13:12;;;;;;;27.70;8.70;;;21.10;64.10;;;23.66;48.07;97827.72;5006404;28;20217;-44
2022/09/06 02:15:55;;;;;;;9.50;5.88;;;21.10;69.80;;;23.46;49.42;97828.13;5006415;28;20064;-44
2022/09/06 02:18:37;;;;;;;6.93;5.53;;;20.60;83.80;;;22.62;53.12;97820.22;5007820;28;20049;-44
2022/09/06 02:21:07;;;;;;;10.13;6.88;;;19.90;92.50;;;22.31;53.04;97814.03;5006622;28;20166;-46
2022/09/06 02:23:39;;;;;;;7.53;5.05;;;19.50;97.90;;;21.84;53.90;97824.72;5006248;28;20415;-44
2022/09/06 02:26:28;;;;;;;6.82;5.55;;;19.30;99.90;;;21.58;53.93;97812.34;5008120;28;20061;-45
2022/09/06 02:28:56;;;;;;;6.18;4.68;;;19.00;99.90;;;21.45;55.20;97802.50;5006149;28;20057;-48
2022/09/06 02:31:46;;;;;;;6.93;5.45;;;18.90;99.90;;;21.23;56.16;97807.53;5007038;28;20046;-44
2022/09/06 02:34:17;;;;;;;7.25;5.20;;;18.80;99.90;;;21.18;56.90;97813.59;5005627;28;20281;-45
2022/09/06 02:36:46;;;;;;;9.38;5.28;;;18.70;99.90;;;21.09;57.96;97822.25;5007463;28;20056;-44
2022/09/06 02:39:14;;;;;;;7.95;5.15;;;18.60;99.90;;;20.99;58.77;97825.47;5006878;28;20169;-44
2022/09/06 02:41:45;;;;;;;6.82;5.53;;;18.60;99.90;;;21.23;58.39;97829.19;5008971;28;20071;-47
2022/09/06 02:44:13;;;;;;;10.52;6.72;;;18.70;99.90;;;21.24;58.52;97807.28;5006375;28;20158;-46
2022/09/06 02:46:41;;;;;;;9.15;6.75;;;18.70;99.90;;;20.89;60.09;97733.16;5005692;28;20052;-47
2022/09/06 02:49:09;;;;;;;11.35;7.32;;;18.40;99.90;;;20.92;60.71;97730.84;5006028;28;20366;-45
2022/09/06 02:51:38;;;;;;;10.93;8.07;;;18.40;99.90;;;20.98;60.62;97734.53;5007574;28;20279;-47
2022/09/06 02:54:06;;;;;;;9.77;6.82;;;18.40;99.90;;;21.01;60.65;97734.06;5005873;28;20145;-45
2022/09/06 02:56:35;;;;;;;12.45;7.18;;;18.40;99.90;;;21.02;60.37;97738.44;5007114;28;20125;-46
2022/09/06 02:59:04;;;;;;;9.25;7.28;;;18.40;99.90;;;21.00;60.22;97754.06;5006573;28;20459;-45
2022/09/06 03:01:32;;;;;;;9.35;7.32;;;18.30;99.90;;;21.00;60.84;97754.88;5006761;28;20064;-45
2022/09/06 03:04:01;;;;;;;9.60;7.97;;;18.40;99.90;;;21.03;61.26;97772.53;5007846;28;20049;-45
2022/09/06 03:06:29;;;;;;;13.48;7.50;;;18.40;99.90;;;21.07;61.50;97789.16;5006590;28;20239;-47
2022/09/06 03:08:58;;;;;;;14.98;8.88;;;18.50;99.90;;;21.09;61.36;97782.47;5006613;28;20050;-46
2022/09/06 03:11:27;;;;;;;8.27;6.85;;;18.50;99.90;;;21.13;60.78;97772.03;5007018;28;20042;-45
2022/09/06 03:13:55;;;;;;;9.38;6.55;;;18.40;99.90;;;21.16;60.95;97763.47;5007092;28;20053;-44
2022/09/06 03:16:23;;;;;;;10.27;6.40;;;18.50;99.90;;;21.20;60.89;97762.78;5008052;28;20336;-45
2022/09/06 03:18:51;;;;;;;8.25;6.00;;;18.40;99.90;;;21.23;60.81;97761.50;5007456;28;20045;-45
2022/09/06 03:21:19;;;;;;;9.95;5.68;;;18.50;99.90;;;21.28;60.51;97750.00;5006863;28;20062;-44
2022/09/06 03:23:46;;;;;;;7.38;6.10;;;18.40;99.90;;;21.30;60.53;97747.88;5005194;28;20050;-46
2022/09/06 03:26:14;;;;;;;8.65;6.22;;;18.40;99.90;;;21.25;60.96;97756.69;5007676;28;20346;-45
2022/09/06 03:28:42;;;;;;;8.63;5.35;;;18.30;99.90;;;21.26;60.30;97750.22;5008022;28;20064;-44
2022/09/06 03:31:10;;;;;;;12.25;6.30;;;18.30;99.90;;;21.32;59.82;97734.94;5006686;28;20050;-46
2022/09/06 03:33:38;;;;;;;7.40;5.32;;;18.40;99.90;;;21.32;60.27;97746.59;5005577;28;20227;-45
2022/09/06 03:36:07;;;;;;;7.60;5.68;;;18.40;99.90;;;21.25;60.44;97751.28;5007144;28;20058;-44
2022/09/06 03:38:35;;;;;;;9.35;5.70;;;18.30;99.90;;;21.30;60.67;97748.69;5006899;28;20049;-45
2022/09/06 03:41:03;;;;;;;10.25;6.45;;;18.40;99.90;;;21.31;60.17;97733.31;5006900;28;20058;-44
2022/09/06 03:43:31;;;;;;;9.00;5.70;;;18.50;99.90;;;21.34;60.54;97749.91;5006470;28;20050;-44
2022/09/06 03:46:01;;;;;;;8.00;5.90;;;18.50;99.90;;;21.45;60.37;97755.66;5005505;28;20057;-45
2022/09/06 03:48:29;;;;;;;9.52;5.57;;;18.60;99.90;;;21.51;59.68;97760.16;5007037;28;20050;-44
2022/09/06 03:50:58;;;;;;;5.93;5.07;;;18.60;99.90;;;21.54;59.86;97762.38;5009829;28;20053;-45
2022/09/06 03:53:28;;;;;;;8.50;5.95;;;18.60;99.90;;;21.65;60.16;97772.44;5009965;28;20060;-46
2022/09/06 03:55:57;;;;;;;6.00;4.97;;;18.70;99.90;;;21.73;60.22;97758.59;5009574;28;20045;-45
2022/09/06 03:58:30;;;;;;;9.35;4.80;;;18.80;99.90;;;21.81;59.71;97766.41;5011202;28;20408;-46
2022/09/06 04:01:07;;;;;;;8.07;5.38;;;18.90;99.90;;;21.91;59.20;97756.88;5010205;28;20050;-44
2022/09/06 04:03:36;;;;;;;5.88;4.68;;;18.90;99.90;;;21.94;59.48;97743.69;5009917;28;20061;-44
2022/09/06 04:06:05;;;;;;;6.40;4.65;;;19.00;99.90;;;21.99;59.17;97743.00;5012422;28;20059;-47
2022/09/06 04:08:35;;;;;;;6.05;4.95;;;19.10;99.90;;;22.00;58.85;97750.91;5009080;28;20048;-46
2022/09/06 04:11:04;;;;;;;6.60;4.97;;;19.10;99.90;;;21.98;58.97;97761.16;5011099;28;20076;-45
2022/09/06 04:13:32;;;;;;;7.38;4.43;;;19.00;99.90;;;22.00;59.07;97753.63;5009565;28;20265;-45
2022/09/06 04:16:01;;;;;;;7.07;4.65;;;19.00;99.90;;;22.01;59.29;97747.13;5010672;28;20046;-44
2022/09/06 04:18:29;;;;;;;6.15;5.40;;;19.10;99.90;;;22.08;58.89;97751.59;5009569;28;20058;-44
2022/09/06 04:20:57;;;;;;;5.65;3.92;;;19.10;99.90;;;22.08;59.16;97748.91;5010042;28;20056;-44
2022/09/06 04:23:27;;;;;;;6.63;4.45;;;19.10;99.90;;;22.06;58.94;97737.47;5009655;28;20064;-44
2022/09/06 04:25:58;;;;;;;5.80;4.72;;;19.10;99.90;;;22.08;58.78;97736.19;5009708;28;20050;-45
2022/09/06 04:28:27;;;;;;;5.28;4.20;;;19.10;99.90;;;22.12;58.48;97741.94;5010737;28;20062;-44
2022/09/06 04:30:57;;;;;;;5.55;4.40;;;19.20;99.90;;;22.10;58.28;97736.78;5009176;28;20287;-46
2022/09/06 04:33:34;;;;;;;8.80;5.10;;;19.20;99.90;;;22.12;58.74;97728.38;5009410;28;20117;-44
2022/09/06 04:36:06;;;;;;;6.95;5.65;;;19.30;99.90;;;22.11;58.27;97727.56;5009570;28;20057;-47
2022/09/06 04:38:37;;;;;;;8.73;5.75;;;19.20;99.90;;;22.12;57.78;97737.38;5009913;28;20060;-44
2022/09/06 04:41:07;;;;;;;8.00;5.43;;;19.20;99.90;;;22.13;58.29;97740.91;5009399;28;20352;-44
2022/09/06 04:43:35;;;;;;;6.80;5.57;;;19.20;99.90;;;22.11;58.36;97743.84;5008578;28;20050;-44
2022/09/06 04:46:27;;;;;;;6.82;5.25;;;19.10;99.90;;;22.04;58.04;97740.41;5009948;28;20062;-47
2022/09/06 04:48:56;;;;;;;7.50;5.28;;;19.10;99.90;;;22.02;58.34;97747.94;5009167;28;20060;-44
2022/09/06 04:51:24;;;;;;;5.57;4.88;;;19.00;99.90;;;21.97;58.57;97753.25;5007993;28;20348;-44
2022/09/06 04:53:53;;;;;;;9.63;5.28;;;19.00;99.90;;;21.94;58.12;97768.06;5024327;28;20068;-45
2022/09/06 04:56:24;;;;;;;7.68;5.70;;;18.90;99.90;;;21.93;58.36;97766.44;5010001;28;20049;-45
2022/09/06 04:58:54;;;;;;;6.60;5.35;;;18.90;99.90;;;21.92;58.45;97759.34;5008778;28;20050;-46
2022/09/06 05:01:22;;;;;;;6.13;5.50;;;18.90;99.90;;;21.89;58.29;97764.41;5008410;28;20054;-47
2022/09/06 05:03:50;;;;;;;7.18;5.53;;;18.90;99.90;;;21.87;57.99;97761.94;5008292;28;20058;-46
2022/09/06 05:06:24;;;;;;;7.03;4.82;;;18.80;99.90;;;21.89;58.09;97762.53;5009254;28;20058;-47
2022/09/06 05:08:52;;;;;;;7.78;6.60;;;18.90;99.90;;;21.88;58.19;97763.56;5007839;28;20049;-46
2022/09/06 05:11:20;;;;;;;9.18;5.85;;;18.90;99.90;;;21.88;58.03;97770.88;5009063;28;20058;-44
2022/09/06 05:13:49;;;;;;;7.50;5.65;;;18.90;99.90;;;21.84;57.82;97767.81;5008087;28;20046;-45
2022/09/06 05:16:17;;;;;;;7.45;5.47;;;18.90;99.90;;;21.79;58.13;97763.09;5008811;28;20045;-44
2022/09/06 05:18:45;;;;;;;8.65;6.07;;;18.80;99.90;;;21.81;58.26;97762.88;5008916;28;20050;-44
2022/09/06 05:21:13;;;;;;;6.32;5.63;;;18.80;99.90;;;21.81;58.10;97758.25;5007807;28;20359;-46
2022/09/06 05:23:41;;;;;;;7.65;6.05;;;18.90;99.90;;;21.80;58.23;97763.91;5008334;28;20555;-45
2022/09/06 05:26:09;;;;;;;6.60;5.38;;;18.90;99.90;;;21.80;57.83;97766.63;5008935;28;20050;-45
2022/09/06 05:28:37;;;;;;;6.88;5.63;;;18.90;99.90;;;21.81;58.08;97760.97;5008102;28;20068;-44
2022/09/06 05:31:11;;;;;;;7.28;4.95;;;19.00;99.90;;;21.84;57.77;97765.09;5006424;28;20053;-44
2022/09/06 05:33:39;;;;;;;8.10;5.35;;;19.00;99.90;;;21.83;58.04;97768.88;5006783;28;20060;-43
2022/09/06 05:36:07;;;;;;;10.75;6.15;;;19.10;99.90;;;21.83;58.07;97775.13;5008104;28;20458;-44
2022/09/06 05:38:35;;;;;;;6.18;5.47;;;19.10;99.90;;;21.83;57.96;97777.81;5007184;28;20235;-45
2022/09/06 05:41:03;;;;;;;9.15;5.90;;;19.00;99.90;;;21.83;58.45;97777.00;5011108;28;20058;-48
2022/09/06 05:43:31;;;;;;;7.90;6.55;;;19.00;99.90;;;21.86;58.18;97778.44;5008987;28;20050;-44
2022/09/06 05:46:00;;;;;;;8.32;6.90;;;19.00;99.90;;;21.84;57.77;97781.34;5008643;28;20056;-44
2022/09/06 05:48:28;;;;;;;12.13;7.40;;;19.10;99.90;;;21.80;58.09;97783.69;5005765;28;20256;-46
2022/09/06 05:51:11;;;;;;;7.25;5.90;;;19.10;99.90;;;21.81;57.88;97782.66;5007959;28;20042;-44
2022/09/06 05:53:44;;;;;;;7.45;6.75;;;19.10;99.90;;;21.80;57.98;97786.41;5007585;28;20060;-44
2022/09/06 05:56:14;;;;;;;7.78;6.10;;;19.10;99.90;;;21.84;58.16;97786.78;5009637;28;20071;-47
2022/09/06 05:58:42;;;;;;;8.95;6.43;;;19.20;99.90;;;21.83;58.50;97780.53;5007631;28;20060;-43
2022/09/06 06:01:20;;;;;;;10.65;6.72;;;19.10;99.90;;;21.85;58.55;97777.59;5006039;28;20072;-43
2022/09/06 06:04:03;;;;;;;8.43;6.63;;;19.20;99.90;;;21.91;58.04;97776.69;5006941;28;20072;-44
2022/09/06 06:06:33;;;;;;;7.93;7.13;;;19.20;99.90;;;21.93;58.55;97774.56;5004179;28;20059;-45
2022/09/06 06:09:02;;;;;;;11.10;6.35;;;19.20;99.90;;;21.92;58.34;97775.59;5006829;28;20064;-44
2022/09/06 06:11:31;;;;;;;8.38;6.25;;;19.10;99.90;;;21.94;58.70;97780.81;5007312;28;20056;-43
2022/09/06 06:13:59;;;;;;;10.07;6.70;;;19.10;99.90;;;21.98;58.22;97785.53;5005760;28;20061;-46
2022/09/06 06:16:27;;;;;;;8.55;6.80;;;19.10;99.90;;;22.02;58.34;97784.03;5006929;28;20112;-43
2022/09/06 06:18:56;;;;;;;7.95;5.93;;;19.20;99.90;;;22.11;57.95;97789.09;5007500;28;20063;-43
2022/09/06 06:21:26;;;;;;;11.10;6.75;;;19.20;99.90;;;22.13;58.06;97792.41;5006903;28;20061;-43
2022/09/06 06:23:57;;;;;;;8.98;6.03;;;19.30;99.90;;;22.17;58.45;97790.88;5006764;28;20058;-44
2022/09/06 06:26:27;;;;;;;8.90;5.57;;;19.30;99.90;;;22.24;57.68;97791.63;5006306;28;20066;-46
2022/09/06 06:28:56;;;;;;;13.90;6.53;;;19.40;99.90;;;22.26;57.63;97792.25;5006711;28;20053;-44
2022/09/06 06:31:24;;;;;;;9.40;5.97;;;19.40;99.90;;;22.29;58.32;97794.47;5006784;28;20046;-45
2022/09/06 06:33:52;;;;;;;11.85;6.65;;;19.50;99.90;;;22.34;58.18;97789.19;5006790;28;20068;-45
2022/09/06 06:36:23;;;;;;;10.73;5.88;;;19.50;99.90;;;22.39;57.86;97796.59;5007182;28;20723;-44
2022/09/06 06:38:54;;;;;;;11.02;6.15;;;19.60;99.90;;;22.46;57.81;97796.50;5006504;28;20046;-46
2022/09/06 06:41:25;;;;;;;11.25;6.00;;;19.70;99.90;;;22.50;57.71;97798.50;5006962;28;20057;-44
2022/09/06 06:43:58;;;;;;;9.85;5.15;;;19.80;99.90;;;22.57;57.58;97798.41;5007180;28;20050;-46
2022/09/06 06:46:33;;;;;;;8.00;4.80;;;19.90;99.90;;;22.64;57.73;97795.56;5007823;28;20062;-43
2022/09/06 06:49:01;;;;;;;9.10;5.15;;;19.90;99.90;;;22.68;56.96;97794.91;5006728;28;20068;-43
2022/09/06 06:51:32;;;;;;;10.60;4.85;;;20.00;99.90;;;22.68;57.50;97785.91;5007284;28;20053;-42
2022/09/06 06:54:00;;;;;;;6.80;5.43;;;20.00;99.90;;;22.67;56.81;97800.56;5005437;28;20264;-43
2022/09/06 06:56:32;;;;;;;10.73;5.70;;;20.10;99.90;;;22.66;56.94;97799.69;5006925;28;20064;-44
2022/09/06 06:59:04;;;;;;;7.93;5.65;;;20.10;99.90;;;22.67;57.18;97793.22;5007279;28;20064;-43
2022/09/06 07:01:33;;;;;;;5.40;4.40;;;20.10;99.90;;;22.68;56.76;97777.75;5006227;28;20344;-43
2022/09/06 07:04:02;;;;;;;12.52;5.93;;;20.10;99.90;;;22.67;56.21;97763.38;5010463;28;20069;-43
2022/09/06 07:06:30;;;;;;;6.13;4.47;;;20.10;99.90;;;22.65;56.23;97773.66;5014119;28;20058;-45
2022/09/06 07:09:19;;;;;;;12.00;5.05;;;20.10;99.90;;;22.66;55.95;97780.72;4999601;28;20360;-43
2022/09/06 07:11:48;;;;;;;12.63;5.68;;;20.10;99.90;;;22.69;56.14;97782.13;4986972;28;20356;-44
2022/09/06 07:14:17;;;;;;;10.35;5.90;;;20.20;99.90;;;22.75;55.73;97786.63;4988320;28;20054;-46
2022/09/06 07:16:45;;;;;;;8.20;5.13;;;20.20;99.90;;;22.83;55.88;97782.72;4987376;28;20046;-45
2022/09/06 07:19:13;;;;;;;9.57;5.15;;;20.30;99.90;;;22.93;55.53;97777.53;4987397;28;20199;-43
2022/09/06 07:22:01;;;;;;;6.50;4.65;;;20.30;99.90;;;23.01;55.36;97774.44;4986506;28;20325;-43
2022/09/06 07:24:32;;;;;;;8.50;5.50;;;20.40;99.90;;;23.06;55.36;97780.00;4987168;28;20050;-45
2022/09/06 07:27:00;;;;;;;6.15;4.70;;;20.50;99.90;;;23.09;55.05;97776.84;4989781;28;20317;-43
2022/09/06 07:29:48;;;;;;;6.30;5.32;;;20.50;99.90;;;23.17;54.60;97783.78;4990864;28;20384;-46
2022/09/06 07:32:15;;;;;;;5.40;4.40;;;20.60;99.90;;;23.20;54.84;97786.00;4990549;28;20378;-44
2022/09/06 07:34:43;;;;;;;7.00;4.88;;;20.60;99.90;;;23.24;54.68;97784.47;4991173;28;20057;-46
2022/09/06 07:37:11;;;;;;;6.47;4.82;;;20.70;99.90;;;23.26;54.11;97781.50;4991340;28;20054;-45
2022/09/06 07:39:40;;;;;;;6.70;5.13;;;20.70;99.90;;;23.30;54.08;97785.41;4990665;28;20054;-43
2022/09/06 07:42:08;;;;;;;8.07;4.90;;;20.70;99.90;;;23.37;53.67;97780.66;4992152;28;20200;-46
2022/09/06 07:44:36;;;;;;;8.50;4.70;;;20.80;99.90;;;23.44;54.26;97778.66;4990749;28;20361;-44
2022/09/06 07:47:06;;;;;;;7.63;4.93;;;20.90;99.90;;;23.51;53.44;97775.78;4990547;28;20076;-46
2022/09/06 07:49:55;;;;;;;6.78;5.30;;;20.90;99.90;;;23.59;53.50;97778.94;4990714;28;20284;-43
2022/09/06 07:52:43;;;;;;;5.85;5.10;;;21.00;99.90;;;23.62;53.27;97780.34;4990826;28;20360;-44
2022/09/06 07:55:31;;;;;;;5.82;4.93;;;21.00;99.90;;;23.69;53.20;97781.03;4991956;28;20054;-46
2022/09/06 07:57:59;;;;;;;5.90;5.10;;;21.10;99.90;;;23.72;53.29;97774.28;4991064;28;20046;-46
2022/09/06 08:00:27;;;;;;;6.32;4.68;;;21.20;99.90;;;23.74;53.07;97764.00;4991652;28;20054;-45
2022/09/06 08:02:55;;;;;;;7.10;5.25;;;21.20;99.90;;;23.85;53.21;97759.63;4991284;28;20050;-45
2022/09/06 08:05:22;;;;;;;6.63;4.75;;;21.40;99.90;;;23.91;52.62;97764.06;4990778;28;20064;-44
2022/09/06 08:08:10;;;;;;;6.55;4.65;;;21.40;99.90;;;23.98;52.45;97762.00;4991135;28;20360;-43
2022/09/06 08:10:58;;;;;;;8.32;4.45;;;21.50;99.90;;;24.08;52.34;97761.34;4988838;28;20069;-44
2022/09/06 08:13:26;;;;;;;11.85;4.35;;;21.60;99.90;;;24.13;52.23;97758.75;5002406;28;20061;-45
2022/09/06 08:16:09;;;;;;;10.43;4.88;;;21.70;99.90;;;24.22;52.02;97759.19;5010650;28;20056;-45
2022/09/06 08:18:37;;;;;;;8.53;5.30;;;21.80;99.30;;;24.31;51.63;97765.84;5009265;28;20225;-45
2022/09/06 08:21:13;;;;;;;7.60;4.72;;;21.80;99.70;;;24.39;51.68;97765.44;5010023;28;20273;-44
2022/09/06 08:23:48;;;;;;;7.88;4.60;;;21.90;99.10;;;24.50;51.73;97772.66;5010158;28;20056;-45
2022/09/06 08:26:17;;;;;;;6.05;4.80;;;22.00;98.30;;;24.55;51.19;97764.63;5009839;28;20049;-44
2022/09/06 08:28:46;;;;;;;6.70;4.55;;;22.10;98.30;;;24.63;50.99;97776.19;5009790;28;20050;-45
2022/09/06 08:31:16;;;;;;;7.72;5.13;;;22.20;97.00;;;24.70;50.95;97766.78;5008985;28;20046;-44
2022/09/06 08:33:44;;;;;;;5.55;3.80;;;22.30;96.70;;;24.83;50.63;97762.03;5008925;28;20042;-46
2022/09/06 08:36:13;;;;;;;4.95;4.43;;;22.40;96.10;;;24.95;50.60;97766.31;5009190;28;20042;-45
2022/09/06 08:38:42;;;;;;;4.82;4.32;;;22.50;95.60;;;25.13;50.28;97759.75;5009148;28;20049;-44
2022/09/06 08:41:15;;;;;;;4.57;4.05;;;22.70;95.60;;;25.33;50.10;97766.56;5008349;28;20058;-45
2022/09/06 08:44:23;;;;;;;6.90;3.70;;;22.90;93.40;;;25.53;49.83;97772.25;5008291;28;20062;-43
2022/09/06 08:47:14;;;;;;;6.43;4.32;;;23.10;89.40;;;25.73;48.43;97776.28;5005207;28;20065;-43
2022/09/06 08:49:47;;;;;;;6.90;4.32;;;23.30;87.60;;;25.85;48.46;97771.50;5008877;28;20121;-44
2022/09/06 08:52:46;;;;;;;7.68;4.18;;;23.40;86.50;;;26.04;48.47;97766.53;5008580;28;20042;-45
2022/09/06 08:55:44;;;;;;;6.13;4.88;;;23.60;82.20;;;26.18;48.10;97772.41;5008999;28;20070;-44
2022/09/06 08:58:46;;;;;;;5.65;4.05;;;23.70;81.30;;;26.25;47.84;97767.56;5008281;28;20054;-47
2022/09/06 09:01:28;;;;;;;5.25;4.35;;;23.90;79.90;;;26.31;46.89;97766.50;5008181;28;20045;-44
2022/09/06 09:03:57;;;;;;;5.80;3.92;;;23.90;76.30;;;26.33;46.24;97767.06;5040294;28;20059;-44
2022/09/06 09:06:27;;;;;;;5.35;4.00;;;23.90;75.10;;;26.36;45.97;97760.25;5009157;28;20276;-45
2022/09/06 09:09:07;;;;;;;7.97;4.30;;;24.00;74.20;;;26.44;46.37;97754.31;5009975;28;20058;-46
2022/09/06 09:11:37;;;;;;;7.35;4.18;;;24.10;73.40;;;26.47;46.50;97756.53;5023612;28;20046;-46
2022/09/06 09:14:34;;;;;;;7.40;4.53;;;24.10;73.90;;;26.51;46.39;97754.13;5040503;28;20053;-44
2022/09/06 09:17:25;;;;;;;7.93;4.25;;;24.10;71.00;;;26.59;46.71;97758.28;5008745;28;20248;-44
2022/09/06 09:19:54;;;;;;;7.25;4.72;;;24.10;72.20;;;26.61;45.84;97765.13;5039739;28;20046;-44
2022/09/06 09:22:24;;;;;;;5.93;4.90;;;24.20;72.40;;;26.66;46.31;97756.16;5008110;28;20049;-43
2022/09/06 09:24:53;;;;;;;8.57;4.05;;;24.20;72.00;;;26.73;46.21;97755.94;5040577;28;20076;-44
2022/09/06 09:27:26;;;;;;;8.55;4.25;;;24.30;71.80;;;26.80;45.91;97756.53;5007790;28;20244;-47
2022/09/06 09:29:53;;;;;;;4.43;4.00;;;24.40;71.00;;;26.87;45.69;97755.22;5038390;28;20249;-43
2022/09/06 09:32:44;;;;;;;7.60;4.78;;;24.40;70.60;;;26.91;45.39;97755.50;5008127;28;20050;-44
2022/09/06 09:35:36;;;;;;;5.93;4.95;;;24.40;70.30;;;26.89;46.06;97754.94;5008860;28;20054;-45
2022/09/06 09:38:25;;;;;;;25.08;13.38;;;24.40;69.60;;;26.89;45.67;97755.78;5007610;28;20050;-44
2022/09/06 09:41:01;;;;;;;20.27;12.32;;;24.30;70.10;;;26.87;45.96;97755.22;5007929;28;20235;-47
2022/09/06 09:43:31;;;;;;;37.30;25.33;;;24.30;70.30;;;26.85;45.33;97757.38;5007480;28;20064;-47
2022/09/06 09:46:23;;;;;;;5.53;4.80;;;24.30;69.80;;;26.75;44.92;97765.50;5006105;28;20057;-43
2022/09/06 09:49:27;;;;;;;7.10;4.10;;;24.40;67.00;;;26.88;44.68;97762.31;5006935;28;20041;-44
2022/09/06 09:52:13;;;;;;;7.45;4.32;;;24.40;65.90;;;26.83;44.83;97755.97;5009248;28;20360;-45
2022/09/06 09:54:46;;;;;;;6.57;5.38;;;24.40;64.60;;;26.68;44.94;97754.81;5008039;28;20053;-48
2022/09/06 09:57:18;;;;;;;6.05;4.75;;;24.40;65.90;;;26.81;44.64;97755.44;5008507;28;20058;-44
2022/09/06 09:59:56;;;;;;;8.73;4.20;;;24.40;67.00;;;26.86;44.31;97755.47;5039266;28;20046;-44
2022/09/06 10:02:35;;;;;;;6.00;5.40;;;24.40;66.00;;;26.89;44.97;97761.22;5007185;28;20059;-47
2022/09/06 10:05:19;;;;;;;7.00;4.65;;;24.50;67.10;;;26.90;45.21;97757.41;5039705;28;20255;-44
2022/09/06 10:07:54;;;;;;;7.72;4.95;;;24.50;67.50;;;26.95;44.94;97761.25;5039297;28;20061;-44
2022/09/06 10:10:30;;;;;;;6.15;4.60;;;24.60;67.20;;;27.06;45.22;97752.03;5039229;28;20080;-43
2022/09/06 10:13:29;;;;;;;8.60;4.85;;;24.60;67.70;;;27.07;45.46;97754.50;5037771;28;20252;-44
2022/09/06 10:16:01;;;;;;;5.30;4.63;;;24.60;67.00;;;27.01;45.16;97757.47;5008744;28;20063;-45
2022/09/06 10:18:38;;;;;;;6.20;4.63;;;24.70;66.80;;;27.16;45.50;97753.97;5007698;28;20058;-45
2022/09/06 10:21:22;;;;;;;7.07;5.45;;;24.80;67.60;;;27.15;45.33;97746.88;5006585;28;20285;-44
2022/09/06 10:24:42;;;;;;;4.97;4.53;;;24.80;66.80;;;27.22;45.01;97745.56;5007784;28;20136;-44
2022/09/06 10:27:09;;;;;;;7.82;4.90;;;24.90;66.40;;;27.32;45.04;97738.50;5005491;28;20053;-43
2022/09/06 10:30:08;;;;;;;5.88;4.00;;;25.00;66.10;;;27.47;44.33;97739.41;5008674;28;20069;-47
2022/09/06 10:33:06;;;;;;;7.75;4.80;;;25.10;65.20;;;27.60;44.71;97737.25;5034417;28;20058;-46
2022/09/06 10:35:37;;;;;;;6.30;4.47;;;25.10;65.10;;;27.66;44.50;97734.22;5007212;28;20076;-44
2022/09/06 10:38:37;;;;;;;6.72;4.35;;;25.20;65.50;;;27.71;44.10;97736.19;5007129;28;20555;-45
2022/09/06 10:41:51;;;;;;;6.90;4.60;;;25.30;64.80;;;27.74;44.53;97740.28;5007415;28;20046;-45
2022/09/06 10:45:04;;;;;;;7.13;4.60;;;25.30;65.30;;;27.84;44.00;97729.34;5007272;28;20050;-45
2022/09/06 10:47:55;;;;;;;5.95;4.50;;;25.40;63.70;;;27.93;44.40;97727.75;5005474;28;20072;-45
2022/09/06 10:50:47;;;;;;;5.38;4.05;;;25.50;65.10;;;28.00;44.88;97725.59;5006544;28;20056;-45
2022/09/06 10:53:21;;;;;;;6.50;3.92;;;25.60;65.60;;;28.11;44.96;97731.91;5007733;28;20064;-44